Time;durP1;ratioP1;P1;durP2;ratioP2;P2;SDS_P1;SDS_P2;PMS_P1;PMS_P2;Temp;Humidity;BMP_temperature;BMP_pressure;BME280_temperature;BME280_humidity;BME280_pressure;Samples;Min_cycle;Max_cycle;Signal;HPM_P1;HPM_P2
2021/01/29 00:01:48;;;;;;;46.90;23.37;;;3.60;99.90;;;-143.32;100.00;36979.69;4957227;29;20577;-91
2021/01/29 00:04:19;;;;;;;55.40;24.60;;;3.60;99.90;;;-143.32;100.00;36931.44;4957402;29;20473;-90
2021/01/29 00:06:50;;;;;;;53.70;25.00;;;3.60;99.90;;;-143.32;100.00;36951.53;4956947;29;20473;-90
2021/01/29 00:09:18;;;;;;;46.90;25.20;;;3.70;99.90;;;-143.32;100.00;36915.38;4957046;29;20445;-89
2021/01/29 00:11:48;;;;;;;47.00;23.90;;;3.70;99.90;;;-143.32;100.00;36877.19;4957056;29;20453;-90
2021/01/29 00:14:15;;;;;;;54.07;27.13;;;3.60;99.90;;;-143.32;100.00;36893.25;4956268;29;20494;-90
2021/01/29 00:16:42;;;;;;;60.53;28.27;;;3.60;99.90;;;-143.32;100.00;36875.16;4956220;29;20499;-91
2021/01/29 00:19:16;;;;;;;54.03;26.00;;;3.70;99.90;;;-143.32;100.00;36816.88;4956356;29;20987;-90
2021/01/29 00:21:44;;;;;;;60.30;25.23;;;3.70;99.90;;;-143.32;100.00;36816.88;4956193;29;20453;-90
2021/01/29 00:24:13;;;;;;;54.87;24.67;;;3.70;99.90;;;-143.32;100.00;36806.84;4956852;29;20815;-92
2021/01/29 00:26:40;;;;;;;63.73;27.30;;;3.70;99.90;;;-143.32;100.00;36804.81;4956344;29;20477;-90
2021/01/29 00:29:07;;;;;;;52.53;25.50;;;3.70;99.90;;;-143.32;100.00;36802.81;4956001;29;20512;-89
2021/01/29 00:31:39;;;;;;;61.43;28.20;;;3.80;99.90;;;-143.32;100.00;36738.50;4956141;29;20447;-90
2021/01/29 00:34:10;;;;;;;58.43;27.23;;;3.70;99.90;;;-143.32;100.00;36678.22;4956131;29;20457;-91
2021/01/29 00:36:37;;;;;;;68.23;28.00;;;3.70;99.90;;;-143.32;100.00;36704.34;4956681;29;20452;-89
2021/01/29 00:39:08;;;;;;;87.27;30.50;;;3.70;99.90;;;-143.32;100.00;36664.16;4955711;29;20485;-90
2021/01/29 00:41:36;;;;;;;72.90;30.90;;;3.80;99.90;;;-143.32;100.00;36652.09;4956070;29;20532;-90
2021/01/29 00:44:13;;;;;;;;;;;;;;;;;;;;;
2021/01/29 00:46:40;;;;;;;67.87;28.33;;;3.80;99.90;;;-143.32;100.00;36605.88;4955784;29;20445;-89
2021/01/29 00:49:15;;;;;;;75.40;28.10;;;3.80;99.90;;;-143.32;100.00;36525.47;4956446;29;20461;-89
2021/01/29 00:51:43;;;;;;;75.27;28.17;;;3.80;99.90;;;-143.32;100.00;36527.50;4958584;29;20856;-90
2021/01/29 00:54:10;;;;;;;66.73;27.33;;;3.90;99.90;;;-143.32;100.00;36475.25;4959081;29;20484;-90
2021/01/29 00:56:39;;;;;;;71.57;28.80;;;3.90;99.90;;;-143.32;100.00;36465.19;4959216;29;20540;-88
2021/01/29 00:59:06;;;;;;;65.57;26.80;;;4.10;99.90;;;-143.32;100.00;36425.00;4958988;29;20904;-89
2021/01/29 01:01:34;;;;;;;77.20;29.43;;;4.00;99.90;;;-143.32;100.00;36449.13;4959498;29;20932;-90
2021/01/29 01:04:18;;;;;;;;;;;;;;;;;;;;;
2021/01/29 01:06:46;;;;;;;82.17;29.10;;;4.00;99.90;;;-143.32;100.00;36416.97;4958926;29;20445;-90
2021/01/29 01:09:14;;;;;;;85.87;30.87;;;4.00;99.90;;;-143.32;100.00;36340.59;4959455;29;20457;-89
2021/01/29 01:11:42;;;;;;;80.53;29.20;;;4.10;99.90;;;-143.32;100.00;36376.78;4959018;29;20441;-88
2021/01/29 01:14:19;;;;;;;;;;;;;;;;;;;;;
2021/01/29 01:16:47;;;;;;;75.57;28.97;;;4.10;99.90;;;-143.32;100.00;36328.53;4956891;29;20457;-88
2021/01/29 01:19:15;;;;;;;87.63;30.30;;;4.10;99.90;;;-143.32;100.00;36322.50;4958569;29;20483;-90
2021/01/29 01:21:44;;;;;;;88.13;28.80;;;4.20;99.90;;;-143.32;100.00;36280.31;4958650;29;20453;-90
2021/01/29 01:24:13;;;;;;;85.57;29.80;;;4.20;99.90;;;-143.32;100.00;36256.19;4959011;29;20452;-91
2021/01/29 01:26:44;;;;;;;102.17;30.80;;;4.30;99.90;;;-143.32;100.00;36199.94;4958342;29;20481;-90
2021/01/29 01:29:21;;;;;;;;;;;;;;;;;;;;;
2021/01/29 01:31:54;;;;;;;99.00;30.27;;;4.40;99.90;;;-143.32;100.00;36197.94;4958707;29;20760;-91
2021/01/29 01:34:26;;;;;;;79.50;30.10;;;4.40;99.90;;;-143.32;100.00;36209.97;4959048;29;20449;-90
2021/01/29 01:36:53;;;;;;;85.07;31.70;;;4.40;99.90;;;-143.32;100.00;36216.00;4958889;29;20840;-92
2021/01/29 01:39:21;;;;;;;81.73;30.93;;;4.40;99.90;;;-143.32;100.00;36181.84;4958827;29;20492;-90
2021/01/29 01:42:06;;;;;;;75.23;29.10;;;4.40;99.90;;;-143.32;100.00;36165.78;4958789;29;20434;-91
2021/01/29 01:44:38;;;;;;;80.10;29.77;;;4.50;99.90;;;-143.32;100.00;36167.78;4958421;29;20511;-89
2021/01/29 01:47:23;;;;;;;73.53;30.40;;;4.50;99.90;;;-143.32;100.00;36141.66;4958342;29;20465;-92
2021/01/29 01:49:58;;;;;;;88.13;29.00;;;4.50;99.90;;;-143.32;100.00;36151.72;4957798;29;20448;-89
2021/01/29 01:52:41;;;;;;;;;;;;;;;;;;;;;
2021/01/29 01:55:14;;;;;;;87.00;30.90;;;4.60;99.90;;;-143.32;100.00;36163.75;4958140;29;20448;-91
2021/01/29 01:57:46;;;;;;;84.10;31.07;;;4.60;99.90;;;-143.32;100.00;36117.53;4958684;29;20461;-90
2021/01/29 02:00:17;;;;;;;79.90;31.50;;;4.60;99.90;;;-143.32;100.00;36113.53;4958230;29;20487;-90
2021/01/29 02:02:48;;;;;;;91.33;31.27;;;4.70;99.90;;;-143.32;100.00;36111.53;4956918;28;20449;-90
2021/01/29 02:05:21;;;;;;;80.60;31.80;;;4.70;99.90;;;-143.32;100.00;36097.47;4958715;29;20519;-90
2021/01/29 02:07:53;;;;;;;92.73;32.40;;;4.70;99.90;;;-143.32;100.00;36091.44;4958344;29;20409;-91
2021/01/29 02:10:21;;;;;;;73.97;29.73;;;4.80;99.90;;;-143.32;100.00;36051.25;4958549;29;20446;-90
2021/01/29 02:12:59;;;;;;;91.47;31.50;;;4.80;99.90;;;-143.32;100.00;36041.19;4957692;29;20464;-91
2021/01/29 02:15:30;;;;;;;92.57;31.90;;;4.90;99.90;;;-143.32;100.00;36071.34;4958201;29;20449;-89
2021/01/29 02:18:23;;;;;;;;;;;;;;;;;;;;;
2021/01/29 02:21:51;;;;;;;102.27;33.60;;;5.00;99.90;;;-143.32;100.00;36009.03;4958489;29;20441;-90
2021/01/29 02:25:12;;;;;;;102.80;31.70;;;5.00;99.90;;;-143.32;100.00;36015.06;4912591;29;20464;-91
2021/01/29 02:27:52;;;;;;;106.77;32.40;;;5.10;99.90;;;-143.32;100.00;36013.06;4953217;29;20477;-89
2021/01/29 02:31:02;;;;;;;79.83;31.10;;;5.00;99.90;;;-143.32;100.00;35982.91;4958076;29;20476;-91
2021/01/29 02:34:49;;;;;;;89.87;32.40;;;5.10;99.90;;;-143.32;100.00;35986.94;4957351;29;20449;-90
2021/01/29 02:38:13;;;;;;;113.00;33.73;;;5.10;99.90;;;-143.32;100.00;35962.81;4957046;29;20448;-90
2021/01/29 02:40:54;;;;;;;98.00;33.50;;;5.20;99.90;;;-143.32;100.00;35944.75;4956983;29;20551;-88
2021/01/29 02:43:44;;;;;;;87.40;31.30;;;5.20;99.90;;;-143.32;100.00;35902.56;4957649;29;20425;-91
2021/01/29 02:46:23;;;;;;;110.60;31.67;;;5.30;99.90;;;-143.32;100.00;35928.66;4957785;29;20460;-89
2021/01/29 02:49:00;;;;;;;103.13;35.53;;;5.30;99.90;;;-143.32;100.00;35886.47;4958215;29;20449;-91
2021/01/29 02:51:38;;;;;;;101.90;34.83;;;5.40;99.90;;;-143.32;100.00;35890.50;4958199;29;20437;-92
2021/01/29 02:54:15;;;;;;;112.73;35.30;;;5.30;99.90;;;-143.32;100.00;35886.47;4957857;29;20485;-91
2021/01/29 02:56:51;;;;;;;100.10;35.07;;;5.40;99.90;;;-143.32;100.00;35884.47;4957650;29;20453;-91
2021/01/29 02:59:32;;;;;;;104.47;34.60;;;5.40;99.90;;;-143.32;100.00;35836.25;4957562;29;20567;-90
2021/01/29 03:02:03;;;;;;;100.47;34.03;;;5.40;99.90;;;-143.32;100.00;35854.31;4957227;29;20982;-90
2021/01/29 03:04:34;;;;;;;107.93;36.00;;;5.50;99.90;;;-143.32;100.00;35884.47;4956950;29;20445;-90
2021/01/29 03:07:08;;;;;;;111.00;35.60;;;5.50;99.90;;;-143.32;100.00;35858.34;4957008;29;20799;-92
2021/01/29 03:09:47;;;;;;;106.63;35.37;;;5.50;99.90;;;-143.32;100.00;35846.28;4957020;29;20449;-89
2021/01/29 03:12:29;;;;;;;115.17;37.20;;;5.50;99.90;;;-143.32;100.00;35832.22;4956638;29;20444;-90
2021/01/29 03:15:04;;;;;;;125.17;38.27;;;5.50;99.90;;;-143.32;100.00;35794.06;4957488;29;20524;-91
2021/01/29 03:17:41;;;;;;;101.73;36.70;;;5.60;99.90;;;-143.32;100.00;35784.00;4956417;29;20477;-89
2021/01/29 03:20:15;;;;;;;108.87;38.80;;;5.70;99.90;;;-143.32;100.00;35769.94;4956339;29;21109;-92
2021/01/29 03:22:50;;;;;;;112.90;38.20;;;5.70;99.90;;;-143.32;100.00;35767.94;4956878;29;20532;-91
2021/01/29 03:25:23;;;;;;;121.07;40.33;;;5.70;99.90;;;-143.32;100.00;35763.91;4957874;29;20452;-92
2021/01/29 03:27:58;;;;;;;124.37;40.10;;;5.70;99.90;;;-143.32;100.00;35755.88;4956729;29;20481;-90
2021/01/29 03:30:30;;;;;;;125.93;39.27;;;5.70;99.90;;;-143.32;100.00;35595.16;4957353;29;20444;-90
2021/01/29 03:33:17;;;;;;;135.90;40.37;;;5.70;99.90;;;-143.32;100.00;35482.66;4957836;29;20453;-90
2021/01/29 03:35:55;;;;;;;144.87;40.73;;;5.80;99.90;;;-143.32;100.00;35456.53;4958485;29;20818;-89
2021/01/29 03:38:37;;;;;;;137.77;40.60;;;5.80;99.90;;;-143.32;100.00;35462.56;4957385;29;20858;-92
2021/01/29 03:41:15;;;;;;;149.80;42.77;;;5.80;99.90;;;-143.32;100.00;35430.41;4957361;29;20445;-92
2021/01/29 03:44:05;;;;;;;152.43;42.83;;;5.90;99.90;;;-143.32;100.00;35450.50;4957822;29;20452;-91
2021/01/29 03:47:05;;;;;;;;;;;;;;;;;;;;;
2021/01/29 03:49:42;;;;;;;126.43;40.17;;;6.00;99.90;;;-143.32;100.00;35406.31;4957200;29;20429;-92
2021/01/29 03:52:25;;;;;;;144.57;42.23;;;6.00;99.90;;;-143.32;100.00;35412.31;4957061;29;20479;-90
2021/01/29 03:55:17;;;;;;;129.80;41.97;;;6.10;99.90;;;-143.32;100.00;35412.31;4956858;29;20437;-91
2021/01/29 03:58:03;;;;;;;145.67;44.10;;;6.10;99.90;;;-143.32;100.00;35283.75;4957181;29;20433;-90
2021/01/29 04:00:41;;;;;;;143.03;43.03;;;6.10;99.90;;;-143.32;100.00;35253.63;4956178;29;20480;-89
2021/01/29 04:03:24;;;;;;;146.00;43.60;;;6.20;99.90;;;-143.32;100.00;35275.72;4956919;29;20513;-90
2021/01/29 04:06:06;;;;;;;152.87;41.90;;;6.20;99.90;;;-143.32;100.00;35283.75;4957080;29;20418;-90
2021/01/29 04:08:40;;;;;;;150.23;42.07;;;6.30;99.90;;;-143.32;100.00;35283.75;4957209;29;20515;-90
2021/01/29 04:11:12;;;;;;;149.20;41.17;;;6.40;99.90;;;-143.32;100.00;35233.53;4958563;29;20449;-91
2021/01/29 04:13:47;;;;;;;133.37;39.20;;;6.40;99.90;;;-143.32;100.00;35014.56;4959704;29;20461;-91
2021/01/29 04:16:30;;;;;;;145.20;40.93;;;6.50;99.90;;;-143.32;100.00;34908.13;4957507;29;20448;-89
2021/01/29 04:19:07;;;;;;;122.93;37.77;;;6.50;99.90;;;-143.32;100.00;34845.84;4957254;29;20554;-92
2021/01/29 04:21:43;;;;;;;140.63;38.50;;;6.50;99.90;;;-143.32;100.00;34835.81;4956546;29;20437;-91
2021/01/29 04:24:18;;;;;;;126.40;36.80;;;6.60;99.90;;;-143.32;100.00;34661.06;4957593;28;20444;-91
2021/01/29 04:26:54;;;;;;;111.77;37.20;;;6.60;99.90;;;-143.32;100.00;34602.81;4959323;29;20480;-93
2021/01/29 04:29:27;;;;;;;120.03;37.33;;;6.70;99.90;;;-143.32;100.00;34444.16;4960672;29;21058;-92
2021/01/29 04:32:01;;;;;;;127.07;35.87;;;6.70;99.90;;;-143.32;100.00;34482.31;4960808;29;20907;-91
2021/01/29 04:34:35;;;;;;;122.10;35.47;;;6.70;99.90;;;-143.32;100.00;34484.31;4960459;29;20448;-89
2021/01/29 04:37:07;;;;;;;112.60;34.00;;;6.70;99.90;;;-143.32;100.00;34454.19;4959666;29;20842;-90
2021/01/29 04:39:38;;;;;;;118.83;35.50;;;6.70;99.90;;;-143.32;100.00;34464.22;4959855;29;20489;-91
2021/01/29 04:42:18;;;;;;;114.73;33.70;;;6.70;99.90;;;-143.32;100.00;34440.13;4959571;29;20449;-92
2021/01/29 04:58:19;;;;;;;;;;;;;;;;;;;;;
2021/01/29 11:35:52;;;;;;;40.07;6.90;;;8.80;99.90;;;-143.32;100.00;33875.81;5337933;23;20493;-92
2021/01/29 13:34:40;;;;;;;46.27;14.80;;;9.40;99.90;;;-143.32;100.00;34207.16;5932157;23;20455;-90
2021/01/29 13:38:20;;;;;;;43.80;13.20;;;9.40;99.90;;;-143.32;100.00;34231.25;4882326;29;20465;-91
2021/01/29 16:34:29;;;;;;;28.00;5.00;;;8.20;99.90;;;-143.32;100.00;35249.59;4939054;29;20501;-88
2021/01/29 16:37:04;;;;;;;32.17;5.17;;;8.30;99.90;;;-143.32;100.00;35243.59;4945637;29;20460;-90
2021/01/29 16:39:34;;;;;;;31.57;6.13;;;8.30;99.90;;;-143.32;100.00;35223.50;4946231;29;20533;-87
2021/01/29 16:42:25;;;;;;;28.63;6.13;;;8.30;99.90;;;-143.32;100.00;35281.75;4942762;29;20494;-88
2021/01/29 16:44:59;;;;;;;28.47;4.50;;;8.40;99.90;;;-143.32;100.00;35251.63;4943757;29;20438;-90
2021/01/29 16:47:33;;;;;;;44.00;7.47;;;8.40;99.90;;;-143.32;100.00;35265.69;4941324;29;20446;-90
2021/01/29 16:50:31;;;;;;;32.27;4.93;;;8.40;99.90;;;-143.32;100.00;35203.41;4943104;29;20449;-89
2021/01/29 16:53:04;;;;;;;19.83;3.77;;;8.40;99.90;;;-143.32;100.00;35243.59;4941098;29;20454;-88
2021/01/29 16:55:35;;;;;;;21.50;4.00;;;8.40;99.90;;;-143.32;100.00;35273.72;4939675;29;20461;-89
2021/01/29 16:58:11;;;;;;;36.33;4.60;;;8.40;99.90;;;-143.32;100.00;35291.78;4940323;29;20442;-91
2021/01/29 17:00:38;;;;;;;25.80;5.80;;;8.40;99.90;;;-143.32;100.00;35231.53;4941802;29;20477;-90
2021/01/29 17:03:22;;;;;;;26.63;4.80;;;8.40;99.90;;;-143.32;100.00;35281.75;4941250;29;20782;-89
2021/01/29 17:05:50;;;;;;;24.23;5.60;;;8.40;99.90;;;-143.32;100.00;35299.81;4940179;29;20453;-90
2021/01/29 17:08:20;;;;;;;44.97;14.50;;;8.40;99.90;;;-143.32;100.00;35340.00;4939347;29;20446;-88
2021/01/29 17:10:47;;;;;;;20.43;4.47;;;8.40;99.90;;;-143.32;100.00;35323.94;4938365;29;20477;-87
2021/01/29 17:13:17;;;;;;;61.20;12.27;;;8.40;99.90;;;-143.32;100.00;35338.00;4938421;29;20442;-88
2021/01/29 17:15:44;;;;;;;27.07;4.63;;;8.40;99.90;;;-143.32;100.00;35350.06;4952082;29;20527;-86
2021/01/29 17:18:17;;;;;;;39.57;6.10;;;8.40;99.90;;;-143.32;100.00;35321.94;4957820;29;20437;-86
2021/01/29 17:20:44;;;;;;;28.27;6.87;;;8.40;99.90;;;-143.32;100.00;35289.78;4958301;29;21049;-88
2021/01/29 17:23:16;;;;;;;21.63;5.13;;;8.30;99.90;;;-143.32;100.00;35277.72;4945325;29;20457;-88
2021/01/29 17:25:48;;;;;;;40.50;5.47;;;8.20;99.90;;;-143.32;100.00;35329.97;4939056;29;20415;-86
2021/01/29 17:28:19;;;;;;;32.87;6.13;;;8.10;99.90;;;-143.32;100.00;35297.81;4939297;29;20438;-88
2021/01/29 17:30:47;;;;;;;31.67;7.13;;;8.00;99.90;;;-143.32;100.00;35263.66;4938696;29;20446;-87
2021/01/29 17:33:22;;;;;;;31.27;6.93;;;8.00;99.90;;;-143.32;100.00;35255.63;4929626;29;20822;-88
2021/01/29 17:35:52;;;;;;;38.00;6.50;;;7.90;99.90;;;-143.32;100.00;35263.66;4919761;29;20454;-89
2021/01/29 17:38:31;;;;;;;30.60;7.40;;;8.00;99.90;;;-143.32;100.00;35231.53;4937728;29;20454;-89
2021/01/29 17:41:00;;;;;;;27.80;6.50;;;7.90;99.90;;;-143.32;100.00;35183.31;4945253;29;20600;-89
2021/01/29 17:43:32;;;;;;;40.60;8.00;;;7.90;99.90;;;-143.32;100.00;35187.34;4938568;29;20453;-88
2021/01/29 17:46:11;;;;;;;28.53;6.50;;;7.90;99.90;;;-143.32;100.00;35185.31;4938484;29;20427;-87
2021/01/29 17:48:40;;;;;;;36.77;6.70;;;7.90;99.90;;;-143.32;100.00;35175.28;4938023;29;20505;-88
2021/01/29 17:51:28;;;;;;;26.37;7.07;;;7.90;99.90;;;-143.32;100.00;35207.41;4923263;29;20466;-86
2021/01/29 17:53:59;;;;;;;38.73;7.40;;;7.90;99.90;;;-143.32;100.00;35183.31;4918923;29;20466;-88
2021/01/29 17:56:38;;;;;;;43.97;9.17;;;7.90;99.90;;;-143.32;100.00;35227.50;4938498;29;20520;-87
2021/01/29 17:59:04;;;;;;;29.50;7.33;;;7.90;99.90;;;-143.32;100.00;35203.41;4938186;29;20960;-87
2021/01/29 18:02:10;;;;;;;37.80;7.23;;;7.80;99.90;;;-143.32;100.00;35227.50;4949520;29;20506;-90
2021/01/29 18:09:15;;;;;;;33.50;7.90;;;7.80;99.90;;;-143.32;100.00;35199.38;4959246;29;20418;-89
2021/01/29 18:12:40;;;;;;;29.57;7.20;;;7.80;99.90;;;-143.32;100.00;35185.31;4955719;29;20442;-90
2021/01/29 18:15:18;;;;;;;33.07;7.37;;;7.80;99.90;;;-143.32;100.00;35233.53;4934551;29;20485;-89
2021/01/29 18:18:04;;;;;;;26.23;7.63;;;7.80;99.90;;;-143.32;100.00;35227.50;4938376;29;20497;-90
2021/01/29 18:20:42;;;;;;;36.43;8.20;;;7.80;99.90;;;-143.32;100.00;35231.53;4939109;29;20485;-89
2021/01/29 18:26:53;;;;;;;49.63;9.17;;;7.80;99.90;;;-143.32;100.00;35247.59;4946272;29;20413;-88
2021/01/29 18:30:20;;;;;;;40.30;9.40;;;7.80;99.90;;;-143.32;100.00;35265.69;4951063;29;20465;-90
2021/01/29 18:37:48;;;;;;;39.30;8.47;;;7.80;99.90;;;-143.32;100.00;35309.88;4953751;29;20470;-91
2021/01/29 19:13:13;;;;;;;31.70;9.20;;;7.90;99.90;;;-143.32;100.00;35378.19;4933979;29;20430;-91
2021/01/29 19:20:49;;;;;;;32.80;8.40;;;7.90;99.90;;;-143.32;100.00;35384.19;4917190;29;20414;-91
2021/01/29 19:42:52;;;;;;;37.60;7.63;;;8.10;99.90;;;-143.32;100.00;35510.78;4866569;29;20481;-91
2021/01/29 19:49:30;;;;;;;24.60;6.97;;;7.90;99.90;;;-143.32;100.00;35589.13;4790350;30;20451;-89
2021/01/29 19:56:55;;;;;;;23.57;6.13;;;8.10;99.90;;;-143.32;100.00;35743.81;4766613;30;21036;-89
2021/01/29 20:07:36;;;;;;;20.93;6.03;;;8.20;99.90;;;-143.32;100.00;35814.16;4823934;29;20447;-87
2021/01/29 20:14:48;;;;;;;27.40;7.00;;;8.20;99.90;;;-143.32;100.00;35984.94;4843249;29;20461;-88
2021/01/29 20:21:19;;;;;;;;;;;;;;;;;;;;;
2021/01/29 20:23:55;;;;;;;17.63;4.77;;;8.20;99.90;;;-143.32;100.00;36228.06;4950121;29;20449;-87
2021/01/29 20:26:47;;;;;;;9.27;3.80;;;8.20;99.90;;;-143.32;100.00;36344.63;4968985;29;20441;-90
2021/01/29 20:33:18;;;;;;;12.07;3.53;;;8.20;99.90;;;-143.32;100.00;36545.56;4961880;29;20405;-88
2021/01/29 20:36:01;;;;;;;12.80;3.63;;;8.10;99.90;;;-143.32;100.00;36660.13;4968667;29;20442;-93
2021/01/29 20:39:13;;;;;;;12.13;3.27;;;8.10;99.90;;;-143.32;100.00;36724.44;4951279;29;20445;-88
2021/01/29 20:41:45;;;;;;;12.77;3.40;;;8.00;99.90;;;-143.32;100.00;36770.66;4964172;29;20501;-89
2021/01/29 20:47:41;;;;;;;;;;;;;;;;;;;;;
2021/01/29 20:51:00;;;;;;;7.20;2.57;;;7.90;99.90;;;-143.32;100.00;37023.91;4969247;29;20443;-89
2021/01/29 20:53:57;;;;;;;;;;;;;;;;;;;;;
2021/01/29 21:02:42;;;;;;;8.70;2.53;;;7.50;99.90;;;-143.32;100.00;38304.47;4942878;29;20476;-88
2021/01/29 21:05:41;;;;;;;7.83;2.53;;;7.50;99.90;;;-143.32;100.00;38403.00;4964642;29;20452;-91
2021/01/29 21:08:16;;;;;;;12.37;3.80;;;7.50;99.90;;;-143.32;100.00;38437.19;4968707;28;20451;-89
2021/01/29 21:10:45;;;;;;;8.83;3.20;;;7.40;99.90;;;-143.32;100.00;38525.66;4963342;29;20445;-89
2021/01/29 21:21:33;;;;;;;11.07;2.23;;;7.40;99.90;;;-143.32;100.00;38698.59;4941357;29;21018;-89
2021/01/29 21:24:21;;;;;;;12.73;2.93;;;7.30;99.90;;;-143.32;100.00;38744.84;4937791;29;20493;-88
2021/01/29 21:40:57;;;;;;;10.47;2.73;;;7.10;99.90;;;-143.32;100.00;38915.78;4963744;29;20853;-88
2021/01/29 21:43:31;;;;;;;13.23;2.90;;;7.00;99.90;;;-143.32;100.00;38931.88;4964156;29;20999;-88
2021/01/29 21:46:31;;;;;;;8.97;2.53;;;7.00;99.90;;;-143.32;100.00;38951.97;4960649;29;20511;-89
2021/01/29 21:49:07;;;;;;;4.47;2.63;;;6.90;99.90;;;-143.32;100.00;38939.91;4933896;29;20460;-90
2021/01/29 21:51:39;;;;;;;7.90;3.10;;;6.90;99.90;;;-143.32;100.00;38962.03;4965222;29;20974;-88
2021/01/29 21:54:48;;;;;;;;;;;;;;;;;;;;;
2021/01/29 22:04:05;;;;;;;7.70;3.17;;;6.80;99.90;;;-143.32;100.00;39022.38;4970476;28;20489;-89
2021/01/29 22:07:06;;;;;;;11.00;3.40;;;6.70;99.90;;;-143.32;100.00;38998.22;4958802;29;20979;-88
2021/01/29 22:09:35;;;;;;;9.83;3.30;;;6.70;99.90;;;-143.32;100.00;39088.72;4957859;29;20456;-88
2021/01/29 22:12:07;;;;;;;6.20;3.37;;;6.70;99.90;;;-143.32;100.00;39078.69;4957575;29;20472;-88
2021/01/29 22:14:39;;;;;;;7.60;3.07;;;6.60;99.90;;;-143.32;100.00;39066.63;4958348;29;20843;-89
2021/01/29 22:17:17;;;;;;;6.93;3.27;;;6.60;99.90;;;-143.32;100.00;39044.50;4959767;29;21002;-88
2021/01/29 22:19:46;;;;;;;10.00;3.63;;;6.60;99.90;;;-143.32;100.00;39088.72;4958521;28;20441;-89
2021/01/29 22:22:20;;;;;;;10.87;3.83;;;6.60;99.90;;;-143.32;100.00;39090.75;4957785;29;20572;-89
2021/01/29 22:24:57;;;;;;;6.27;3.80;;;6.70;99.90;;;-143.32;100.00;39108.84;4958301;29;20522;-89
2021/01/29 22:27:24;;;;;;;11.77;4.17;;;6.50;99.90;;;-143.32;100.00;39090.75;4958801;29;20520;-88
2021/01/29 22:30:00;;;;;;;10.40;4.30;;;6.50;99.90;;;-143.32;100.00;39086.72;4958210;29;20919;-89
2021/01/29 22:32:31;;;;;;;10.20;4.10;;;6.50;99.90;;;-143.32;100.00;39046.50;4958001;29;20532;-88
2021/01/29 22:35:01;;;;;;;9.70;3.90;;;6.50;99.90;;;-143.32;100.00;39010.31;4958778;29;20818;-90
2021/01/29 22:37:48;;;;;;;9.60;4.83;;;6.50;99.90;;;-143.32;100.00;39076.66;4959715;29;20480;-90
2021/01/29 22:40:24;;;;;;;11.67;6.73;;;6.40;99.90;;;-143.32;100.00;39048.50;4957930;29;20564;-90
2021/01/29 22:42:58;;;;;;;16.53;9.10;;;6.40;99.90;;;-143.32;100.00;39191.31;4941263;29;20478;-89
2021/01/29 22:45:26;;;;;;;17.43;10.00;;;6.10;99.90;;;-143.32;100.00;39203.38;4938609;29;20506;-89
2021/01/29 22:55:35;;;;;;;16.73;11.20;;;5.40;99.90;;;-143.32;100.00;39279.81;5038555;23;20992;-88
2021/01/29 23:17:15;;;;;;;21.93;13.87;;;4.50;99.90;;;-143.32;100.00;39414.56;5617250;23;20500;-90
2021/01/29 23:19:42;;;;;;;24.43;15.03;;;4.50;99.90;;;-143.32;100.00;39398.47;4937062;29;20442;-89
2021/01/29 23:22:09;;;;;;;24.00;14.60;;;4.50;99.90;;;-143.32;100.00;39454.78;4937159;29;20493;-90
2021/01/29 23:24:36;;;;;;;22.43;14.83;;;4.40;99.90;;;-143.32;100.00;39521.16;4937053;29;21008;-88
2021/01/29 23:27:03;;;;;;;23.50;15.17;;;4.10;99.90;;;-143.32;100.00;39464.84;4936961;29;20517;-90
2021/01/29 23:29:30;;;;;;;27.10;15.70;;;4.20;99.90;;;-143.32;100.00;39519.16;4936783;29;20537;-88
2021/01/29 23:31:57;;;;;;;26.10;15.57;;;4.20;99.90;;;-143.32;100.00;39553.34;4936727;29;20510;-89
2021/01/29 23:34:25;;;;;;;26.57;15.70;;;4.10;99.90;;;-143.32;100.00;39569.44;4936977;29;20461;-89
2021/01/29 23:36:56;;;;;;;24.17;16.00;;;3.90;99.90;;;-143.32;100.00;39571.44;4936651;29;20447;-88
2021/01/29 23:39:25;;;;;;;25.83;15.40;;;3.90;99.90;;;-143.32;100.00;39605.66;4937286;29;20479;-90
2021/01/29 23:41:52;;;;;;;29.00;17.47;;;3.80;99.90;;;-143.32;100.00;39621.75;4936575;29;20490;-91
2021/01/29 23:46:56;;;;;;;27.70;17.23;;;3.70;99.90;;;-143.32;100.00;39615.69;5005294;23;20493;-88
